• Join FlightAware (Why Join?)
  • Login
  • US Flag 
07:18AM EDT


 

Airport Tracker/Info


-or-


 

Live Flight TrackerFlight Track Log ✈ EJA922 ✈ 14-Feb-2014 ✈ KSJC - KSBA

Flight Track Log - Related Links

Times and Time Zones

All times are in EST time to prevent confusion due to time zone crossing. See the EJA922 flight status page for this flight to view local times or setup timezone preferences in your user account.

Time Position Orientation Groundspeed Altitude Reporting Facility
EST Latitude Longitude Course Direction KTS MPH feet Rate Location/Type
05:03PM 37.4000 -121.9667 180° South 195 224 4,000  Level Northern Cal TRACON
05:04PM 37.4333 -121.9333 38° Northeast 235 270 5,000 600 Climbing Northern Cal TRACON
05:05PM 37.4000 -121.8833 130° Southeast 221 254 5,200 1,740 Climbing Northern Cal TRACON
05:06PM 37.3667 -121.8167 122° Southeast 249 287 8,500 3,240 Climbing Northern Cal TRACON
05:07PM 37.3000 -121.7500 141° Southeast 322 371 11,700 2,580 Climbing Northern Cal TRACON
05:09PM 36.7438 -121.5833 180° South  Level FlightAware Approximate
05:09PM 37.1775 -121.6586 149° Southeast 361 415 14,900  Level Oakland Center
05:10PM 37.0842 -121.5947 151° Southeast 389 448 16,300 1,380 Climbing Oakland Center
05:11PM 36.9747 -121.5247 153° Southeast 427 491 17,800 1,500 Climbing Oakland Center
05:12PM 36.8494 -121.4292 149° Southeast 437 503 19,400 1,500 Climbing Oakland Center
05:13PM 36.7333 -121.3614 155° Southeast 454 522 20,900 1,380 Climbing Oakland Center
05:14PM 36.6203 -121.2936 154° Southeast 453 521 22,300 1,020 Climbing Oakland Center
05:15PM 36.5050 -121.2247 154° Southeast 456 525 23,000 300 Climbing Oakland Center
05:16PM 36.3858 -121.1539 154° Southeast 469 540 23,000  Level Oakland Center
05:17PM 36.2656 -121.0842 155° Southeast 475 547 23,000  Level Oakland Center
05:18PM 36.1456 -121.0139 155° Southeast 476 548 23,000  Level Oakland Center
05:19PM 36.0000 -120.9289 155° Southeast 481 554 23,000  Level Oakland Center
05:20PM 35.8783 -120.8586 155° Southeast 483 556 23,000  Level Oakland Center
05:21PM 35.7569 -120.7867 154° Southeast 484 557 23,000  Level Oakland Center
05:22PM 35.6342 -120.7161 155° Southeast 488 562 23,000  Level Oakland Center
05:23PM 35.5131 -120.6458 155° Southeast 486 559 23,000 -180 Level Oakland Center
05:24PM 35.3844 -120.5728 155° Southeast 485 558 22,700 -1,380 Descending Los Angeles Center
05:25PM 35.2650 -120.5044 155° Southeast 474 545 20,200 -2,340 Descending Los Angeles Center
05:26PM 35.1519 -120.4411 155° Southeast 447 514 17,900 -2,400 Descending Los Angeles Center
05:27PM 35.0231 -120.3675 155° Southeast 426 490 15,300 -2,280 Descending Los Angeles Center
05:28PM 34.9167 -120.3081 155° Southeast 419 482 13,200 -2,040 Descending Los Angeles Center
05:29PM 34.8431 -120.2656 155° Southeast 379 436 11,600 -1,860 Descending Los Angeles Center
05:29PM 34.8219 -120.2547 157° South 370 426 11,300 -1,500 Descending Los Angeles Center
05:30PM 34.7378 -120.2081 156° South 338 389 9,700 -1,740 Descending Los Angeles Center
05:30PM 34.7281 -120.2031 157° South 319 367 9,500 -780 Descending Los Angeles Center
05:31PM 34.6614 -120.1642 154° Southeast 302 348 9,000 -540 Descending Los Angeles Center
05:31PM 34.6619 -120.1664 287° West 304 350 9,000 -1,560 Level Los Angeles Center
05:32PM 34.5778 -120.1181 155° Southeast 292 336 7,300 -1,680 Descending Los Angeles Center
05:32PM 34.5864 -120.1228 336° Northwest 291 335 7,300 -1,200 Level Los Angeles Center
05:33PM 34.5050 -120.0917 163° South 273 314 6,100 -1,080 Descending Los Angeles Center
05:33PM 34.5156 -120.0886 13° North 276 318 6,200 -240 Climbing Los Angeles Center
05:34PM 34.4408 -120.0444 154° Southeast 258 297 5,900 -240 Descending Los Angeles Center
05:34PM 34.4458 -120.0497 319° Northwest 264 304 6,000 -1,140 Climbing Los Angeles Center
05:35PM 34.3925 -119.9981 141° Southeast 250 288 4,700 -1,440 Descending Los Angeles Center
05:36PM 34.3839 -119.9925 152° Southeast 246 283 4,500 -720 Descending Los Angeles Center
05:37PM 34.3531 -119.9217 118° Southeast 235 270 4,000 -540 Descending Los Angeles Center
05:37PM 34.3528 -119.9189 97° East 243 280 4,000 60 Level Los Angeles Center
05:37PM 34.3456 -119.8589 98° East 214 246 4,100 60 Climbing Los Angeles Center
05:38PM 34.3447 -119.8475 95° East 222 255 4,100 -120 Level Los Angeles Center
05:38PM 34.3486 -119.7850 86° East 213 245 4,000 -120 Descending Los Angeles Center
05:39PM 34.3489 -119.7778 87° East 213 245 4,000 -1,200 Level Los Angeles Center
05:39PM 34.3842 -119.7603 22° Northeast 181 208 2,900 -1,260 Descending Los Angeles Center
05:40PM 34.3947 -119.7561 18° North 189 217 2,700 -1,080 Descending Los Angeles Center
05:40PM 34.4253 -119.7706 339° North 142 163 1,700 -1,200 Descending Los Angeles Center
05:41PM 34.4283 -119.7714 347° North 162 186 1,500 -1,260 Descending Los Angeles Center
05:41PM 34.4289 -119.8058 271° West 135 155 700 -1,080 Descending Los Angeles Center
05:42PM 34.4328 -119.8147 298° West 139 160 400 -420 Descending Los Angeles Center
05:43PM 34.4497 -119.8542 298° West 130 150 100 -300 Descending Los Angeles Center